createdAt,value
2022-12-27T00:01:21.688Z,100947.94
2022-12-27T00:03:53.931Z,100954.03
2022-12-27T00:06:27.931Z,100960.16
2022-12-27T00:08:59.335Z,100957.53
2022-12-27T00:11:31.442Z,100951.38
2022-12-27T00:14:05.202Z,100948.72
2022-12-27T00:16:37.683Z,100952.25
2022-12-27T00:19:09.000Z,100961.94
2022-12-27T00:21:40.411Z,100948.81
2022-12-27T00:24:11.678Z,100958.44
2022-12-27T00:26:43.088Z,100961.88
2022-12-27T00:29:14.390Z,100948.63
2022-12-27T00:31:45.727Z,100956.59
2022-12-27T00:34:17.123Z,100960.94
2022-12-27T00:36:48.489Z,100974.03
2022-12-27T00:39:19.809Z,100948.41
2022-12-27T00:41:51.109Z,100961.75
2022-12-27T00:44:22.382Z,100940.50
2022-12-27T00:46:53.722Z,100970.38
2022-12-27T00:49:25.002Z,100972.09
2022-12-27T00:51:56.336Z,100967.63
2022-12-27T00:54:27.773Z,100972.09
2022-12-27T00:56:59.077Z,100965.13
2022-12-27T00:59:30.421Z,100970.38
2022-12-27T01:02:02.051Z,100969.41
2022-12-27T01:04:33.700Z,100965.84
2022-12-27T01:07:05.002Z,100986.16
2022-12-27T01:09:36.259Z,100980.88
2022-12-27T01:12:07.556Z,100982.69
2022-12-27T01:14:38.863Z,100964.25
2022-12-27T01:17:10.329Z,100989.94
2022-12-27T01:19:41.664Z,100992.69
2022-12-27T01:22:12.956Z,101004.13
2022-12-27T01:24:44.287Z,100952.91
2022-12-27T01:27:15.631Z,100974.88
2022-12-27T01:29:46.941Z,100989.69
2022-12-27T01:32:18.340Z,101017.72
2022-12-27T01:34:50.953Z,101003.63
2022-12-27T01:37:22.229Z,100997.50
2022-12-27T01:39:53.608Z,101003.44
2022-12-27T01:42:43.535Z,100994.78
2022-12-27T01:45:21.099Z,100977.09
2022-12-27T01:48:14.234Z,100998.22
2022-12-27T01:50:53.404Z,100990.22
2022-12-27T01:53:30.123Z,100998.41
2022-12-27T01:56:02.864Z,101012.84
2022-12-27T01:58:42.020Z,101012.22
2022-12-27T02:01:17.653Z,101027.34
2022-12-27T02:03:54.057Z,101004.72
2022-12-27T02:06:27.561Z,101028.56
2022-12-27T02:09:24.584Z,100998.47
2022-12-27T02:11:57.840Z,101029.22
2022-12-27T02:14:38.043Z,101028.16
2022-12-27T02:17:22.466Z,101013.09
2022-12-27T02:20:14.367Z,101020.81
2022-12-27T02:23:23.284Z,101025.09
2022-12-27T02:26:10.070Z,101017.31
2022-12-27T02:28:59.753Z,101018.34
2022-12-27T02:31:49.642Z,101014.88
2022-12-27T02:34:52.012Z,101018.25
2022-12-27T02:37:27.390Z,101006.53
2022-12-27T02:40:21.542Z,101019.72
2022-12-27T02:43:12.670Z,101022.25
2022-12-27T02:46:17.147Z,101002.59
2022-12-27T02:49:15.196Z,101029.94
2022-12-27T02:52:21.676Z,101023.72
2022-12-27T02:55:10.803Z,101027.19
2022-12-27T02:57:53.318Z,101018.34
2022-12-27T03:00:44.274Z,101038.72
2022-12-27T03:03:26.593Z,100988.63
2022-12-27T03:06:35.620Z,101010.06
2022-12-27T03:09:42.302Z,101027.03
2022-12-27T03:13:04.599Z,101033.19
2022-12-27T03:15:55.880Z,101042.94
2022-12-27T03:18:37.622Z,101035.25
2022-12-27T03:21:32.663Z,101032.69
2022-12-27T03:24:24.224Z,101010.53
2022-12-27T03:26:58.043Z,101025.50
2022-12-27T03:29:49.689Z,101025.31
2022-12-27T03:32:42.381Z,101023.22
2022-12-27T03:35:19.469Z,101028.53
2022-12-27T03:38:03.563Z,101027.63
2022-12-27T03:41:03.899Z,101029.34
2022-12-27T03:43:37.362Z,101013.31
2022-12-27T03:46:34.792Z,101026.56
2022-12-27T03:49:25.189Z,101017.91
2022-12-27T03:52:17.059Z,101031.41
2022-12-27T03:54:50.861Z,101038.56
2022-12-27T03:57:24.786Z,101002.44
2022-12-27T03:59:56.435Z,101041.53
2022-12-27T04:02:29.025Z,101043.44
2022-12-27T04:05:00.586Z,101034.69
2022-12-27T04:07:31.870Z,101049.78
2022-12-27T04:10:22.946Z,101046.44
2022-12-27T04:13:12.728Z,101046.53
2022-12-27T04:16:02.505Z,101045.78
2022-12-27T04:18:52.334Z,101053.75
2022-12-27T04:21:42.411Z,101021.28
2022-12-27T04:24:32.384Z,101051.28
2022-12-27T04:27:22.755Z,101044.25
2022-12-27T04:30:12.569Z,101045.91
2022-12-27T04:33:02.335Z,101038.09
2022-12-27T04:35:33.647Z,101042.56
2022-12-27T04:38:05.122Z,101032.97
2022-12-27T04:40:54.922Z,101033.84
2022-12-27T04:43:45.086Z,101027.75
2022-12-27T04:46:44.330Z,101043.66
2022-12-27T04:49:44.296Z,101025.94
2022-12-27T04:52:37.535Z,101058.59
2022-12-27T04:55:20.005Z,101057.72
2022-12-27T04:57:52.319Z,101049.84
2022-12-27T05:00:45.631Z,101063.81
2022-12-27T05:03:19.945Z,101044.38
2022-12-27T05:05:52.326Z,101032.75
2022-12-27T05:08:42.095Z,101065.19
2022-12-27T05:11:32.082Z,101057.22
2022-12-27T05:14:08.808Z,101068.47
2022-12-27T05:16:42.563Z,101066.53
2022-12-27T05:19:14.724Z,101071.69
2022-12-27T05:22:06.092Z,101073.50
2022-12-27T05:24:55.838Z,101066.38
2022-12-27T05:27:27.229Z,101045.28
2022-12-27T05:29:58.586Z,101075.97
2022-12-27T05:32:29.914Z,101070.59
2022-12-27T05:35:01.178Z,101076.63
2022-12-27T05:37:32.458Z,101065.09
2022-12-27T05:40:04.084Z,101064.44
2022-12-27T05:42:35.360Z,101078.56
2022-12-27T05:45:07.729Z,101051.44
2022-12-27T05:47:39.009Z,101079.66
2022-12-27T05:50:10.839Z,101063.44
2022-12-27T05:52:42.209Z,101100.34
2022-12-27T05:55:13.485Z,101114.50
2022-12-27T05:57:44.820Z,101096.19
2022-12-27T06:00:16.341Z,101106.84
2022-12-27T06:02:47.755Z,101053.81
2022-12-27T06:05:19.178Z,101110.09
2022-12-27T06:07:50.751Z,101115.41
2022-12-27T06:10:22.036Z,101122.34
2022-12-27T06:12:53.312Z,101108.03
2022-12-27T06:15:24.575Z,101133.63
2022-12-27T06:17:56.139Z,101129.25
2022-12-27T06:20:27.401Z,101123.91
2022-12-27T06:23:00.170Z,101114.00
2022-12-27T06:25:31.477Z,101121.97
2022-12-27T06:28:02.825Z,101129.25
2022-12-27T06:30:36.246Z,101142.53
2022-12-27T06:33:07.833Z,101140.00
2022-12-27T06:35:39.083Z,101142.72
2022-12-27T06:38:10.356Z,101135.72
2022-12-27T06:40:41.653Z,101154.22
2022-12-27T06:43:13.030Z,101156.91
2022-12-27T06:45:44.348Z,101154.31
2022-12-27T06:48:15.656Z,101149.94
2022-12-27T06:50:46.920Z,101173.66
2022-12-27T06:53:18.303Z,101172.81
2022-12-27T06:55:49.670Z,101184.16
2022-12-27T06:58:20.987Z,101188.53
2022-12-27T07:00:52.275Z,101178.03
2022-12-27T07:03:23.693Z,101186.81
2022-12-27T07:05:54.973Z,101190.34
2022-12-27T07:08:26.300Z,101202.66
2022-12-27T07:11:06.463Z,101200.84
2022-12-27T07:13:42.859Z,101204.34
2022-12-27T07:16:16.346Z,101167.41
2022-12-27T07:18:49.824Z,101206.09
2022-12-27T07:21:24.004Z,101195.59
2022-12-27T07:23:56.285Z,101212.13
2022-12-27T07:26:30.418Z,101201.38
2022-12-27T07:29:02.143Z,101186.00
2022-12-27T07:31:33.634Z,101201.63
2022-12-27T07:34:04.951Z,101235.88
2022-12-27T07:36:40.098Z,101225.28
2022-12-27T07:39:12.268Z,101227.00
2022-12-27T07:41:43.626Z,101248.28
2022-12-27T07:44:15.012Z,101258.00
2022-12-27T07:46:46.293Z,101263.25
2022-12-27T07:49:18.266Z,101258.72
2022-12-27T07:51:49.586Z,101270.16
2022-12-27T07:54:20.889Z,101280.81
2022-12-27T07:56:52.164Z,101284.44
2022-12-27T07:59:23.557Z,101285.41
2022-12-27T08:02:04.165Z,101262.47
2022-12-27T08:04:38.121Z,101298.69
2022-12-27T08:07:16.109Z,101299.69
2022-12-27T08:09:48.207Z,101294.53
2022-12-27T08:12:19.511Z,101289.28
2022-12-27T08:14:50.971Z,101312.28
2022-12-27T08:17:27.009Z,101236.22
2022-12-27T08:19:58.426Z,101296.19
2022-12-27T08:22:29.704Z,101294.97
2022-12-27T08:25:01.154Z,101303.66
2022-12-27T08:27:32.524Z,101291.31
2022-12-27T08:30:04.159Z,101306.25
2022-12-27T08:32:35.465Z,101291.25
2022-12-27T08:35:41.984Z,101308.19
2022-12-27T08:38:01.702Z,101314.44
2022-12-27T08:40:32.985Z,101314.47
2022-12-27T08:43:04.383Z,101320.63
2022-12-27T08:45:42.240Z,101306.56
2022-12-27T08:48:14.045Z,101321.47
2022-12-27T08:50:45.449Z,101325.94
2022-12-27T08:53:18.895Z,101324.22
2022-12-27T08:55:50.732Z,101291.59
2022-12-27T08:58:31.221Z,101316.41
2022-12-27T09:01:10.041Z,101319.88
2022-12-27T09:03:41.648Z,101333.78
2022-12-27T09:06:18.792Z,101332.81
2022-12-27T09:08:51.383Z,101313.22
2022-12-27T09:11:31.461Z,101339.84
2022-12-27T09:14:04.807Z,101326.59
2022-12-27T09:16:36.189Z,101348.59
2022-12-27T09:19:07.588Z,101346.88
2022-12-27T09:21:41.009Z,101339.69
2022-12-27T09:24:13.498Z,101349.50
2022-12-27T09:26:45.018Z,101356.53
2022-12-27T09:29:16.421Z,101365.31
2022-12-27T09:31:47.765Z,101361.84
2022-12-27T09:34:19.151Z,101366.16
2022-12-27T09:36:50.476Z,101360.81
2022-12-27T09:39:21.762Z,101353.72
2022-12-27T09:45:08.887Z,101384.59
2022-12-27T09:47:48.133Z,101389.06
2022-12-27T09:50:49.322Z,101387.41
2022-12-27T09:53:22.645Z,101392.78
2022-12-27T09:55:57.819Z,101397.22
2022-12-27T09:58:39.838Z,101381.50
2022-12-27T10:01:19.923Z,101383.34
2022-12-27T10:03:52.034Z,101388.59
2022-12-27T10:06:48.047Z,101386.94
2022-12-27T10:09:35.305Z,101392.19
2022-12-27T10:12:54.325Z,101389.63
2022-12-27T10:16:10.598Z,101391.47
2022-12-27T10:18:54.810Z,101394.13
2022-12-27T10:21:27.975Z,101402.09
2022-12-27T10:24:20.702Z,101402.22
2022-12-27T10:26:55.391Z,101387.38
2022-12-27T10:29:27.925Z,101403.25
2022-12-27T10:31:59.330Z,101402.47
2022-12-27T10:34:30.627Z,101398.13
2022-12-27T10:37:01.889Z,101397.19
2022-12-27T10:39:35.767Z,101404.38
2022-12-27T10:42:22.004Z,101416.69
2022-12-27T10:45:28.411Z,101424.63
2022-12-27T10:48:32.233Z,101414.03
2022-12-27T10:51:18.993Z,101426.41
2022-12-27T10:53:50.259Z,101429.09
2022-12-27T10:56:30.179Z,101423.03
2022-12-27T10:59:15.503Z,101408.91
2022-12-27T11:01:49.748Z,101431.91
2022-12-27T11:04:24.670Z,101423.09
2022-12-27T11:07:05.108Z,101436.47
2022-12-27T11:09:37.474Z,101442.69
2022-12-27T11:12:13.760Z,101432.16
2022-12-27T11:15:11.052Z,101448.09
2022-12-27T11:17:53.602Z,101456.38
2022-12-27T11:20:29.583Z,101445.03
2022-12-27T11:23:21.327Z,101450.50
2022-12-27T11:25:53.937Z,101463.00
2022-12-27T11:28:33.348Z,101460.53
2022-12-27T11:31:11.589Z,101454.53
2022-12-27T11:33:49.747Z,101443.94
2022-12-27T11:36:28.103Z,101450.94
2022-12-27T11:39:02.768Z,101456.16
2022-12-27T11:41:50.847Z,101427.75
2022-12-27T11:44:26.781Z,101464.84
2022-12-27T11:47:13.916Z,101457.78
2022-12-27T11:50:19.441Z,101457.69
2022-12-27T11:53:20.619Z,101453.19
2022-12-27T11:55:54.620Z,101451.41
2022-12-27T11:58:44.231Z,101461.91
2022-12-27T12:01:27.814Z,101462.78
2022-12-27T12:04:20.932Z,101468.09
2022-12-27T12:07:01.163Z,101454.09
2022-12-27T12:09:59.408Z,101455.88
2022-12-27T12:13:01.625Z,101458.53
2022-12-27T12:16:05.485Z,101434.59
2022-12-27T12:19:15.898Z,101477.00
2022-12-27T12:22:17.732Z,101458.41
2022-12-27T12:25:31.812Z,101468.94
2022-12-27T12:28:56.518Z,101453.88
2022-12-27T12:31:37.555Z,101483.94
2022-12-27T12:34:35.041Z,101483.06
2022-12-27T12:37:30.237Z,101465.38
2022-12-27T12:40:32.972Z,101479.59
2022-12-27T12:43:35.044Z,101483.16
2022-12-27T12:46:25.843Z,101460.25
2022-12-27T12:49:24.300Z,101477.84
2022-12-27T12:52:13.905Z,101484.00
2022-12-27T12:55:04.592Z,101485.66
2022-12-27T12:58:14.439Z,101489.13
2022-12-27T13:01:04.481Z,101484.56
2022-12-27T13:04:08.325Z,101479.25
2022-12-27T13:06:58.259Z,101474.81
2022-12-27T13:09:54.355Z,101473.84
2022-12-27T13:12:50.530Z,101472.91
2022-12-27T13:15:37.590Z,101464.97
2022-12-27T13:18:34.561Z,101466.69
2022-12-27T13:21:48.119Z,101460.50
2022-12-27T13:24:34.697Z,101456.13
2022-12-27T13:27:17.780Z,101456.97
2022-12-27T13:30:07.380Z,101460.56
2022-12-27T13:33:00.672Z,101451.78
2022-12-27T13:35:39.326Z,101451.84
2022-12-27T13:38:29.884Z,101444.72
2022-12-27T13:41:28.056Z,101454.47
2022-12-27T13:44:10.890Z,101458.81
2022-12-27T13:47:01.117Z,101455.28
2022-12-27T13:49:57.263Z,101461.38
2022-12-27T13:52:31.229Z,101457.81
2022-12-27T13:55:15.247Z,101411.78
2022-12-27T13:58:07.749Z,101448.00
2022-12-27T14:01:20.677Z,101448.72
2022-12-27T14:04:33.942Z,101450.34
2022-12-27T14:07:36.833Z,101440.59
2022-12-27T14:10:11.542Z,101438.78
2022-12-27T14:13:01.385Z,101437.84
2022-12-27T14:15:54.390Z,101441.28
2022-12-27T14:18:54.835Z,101442.06
2022-12-27T14:21:47.198Z,101437.59
2022-12-27T14:24:51.155Z,101438.41
2022-12-27T14:27:55.178Z,101434.84
2022-12-27T14:30:54.503Z,101436.47
2022-12-27T14:34:03.094Z,101436.31
2022-12-27T14:37:11.849Z,101437.09
2022-12-27T14:39:45.788Z,101427.38
2022-12-27T14:42:54.643Z,101434.38
2022-12-27T14:46:10.438Z,101436.09
2022-12-27T14:48:53.562Z,101435.25
2022-12-27T14:52:01.823Z,101426.44
2022-12-27T14:55:02.632Z,101429.25
2022-12-27T14:57:55.214Z,101433.63
2022-12-27T15:00:29.350Z,101416.81
2022-12-27T15:03:13.893Z,101438.84
2022-12-27T15:06:15.176Z,101440.53
2022-12-27T15:09:02.517Z,101443.09
2022-12-27T15:11:50.331Z,101448.28
2022-12-27T15:14:40.366Z,101448.25
2022-12-27T15:17:27.372Z,101432.31
2022-12-27T15:20:20.209Z,101441.28
2022-12-27T15:23:22.351Z,101437.84
2022-12-27T15:26:12.400Z,101433.44
2022-12-27T15:29:21.228Z,101442.19
2022-12-27T15:32:37.467Z,101440.44
2022-12-27T15:35:33.604Z,101426.31
2022-12-27T15:38:10.724Z,101449.41
2022-12-27T15:41:08.315Z,101441.66
2022-12-27T15:43:54.752Z,101455.69
2022-12-27T15:46:49.377Z,101440.75
2022-12-27T15:49:20.792Z,101438.88
2022-12-27T15:52:10.963Z,101440.44
2022-12-27T15:54:50.275Z,101435.94
2022-12-27T15:57:36.603Z,101437.53
2022-12-27T16:00:23.062Z,101431.28
2022-12-27T16:03:00.372Z,101427.53
2022-12-27T16:05:47.197Z,101420.47
2022-12-27T16:08:26.898Z,101417.69
2022-12-27T16:10:59.037Z,101403.34
2022-12-27T16:13:42.872Z,101415.69
2022-12-27T16:16:26.753Z,101421.69
2022-12-27T16:19:34.138Z,101419.78
2022-12-27T16:22:58.078Z,101416.97
2022-12-27T16:25:40.839Z,101398.16
2022-12-27T16:28:26.089Z,101423.63
2022-12-27T16:30:59.448Z,101418.19
2022-12-27T16:33:37.446Z,101413.84
2022-12-27T16:36:11.823Z,101424.22
2022-12-27T16:39:14.236Z,101417.97
2022-12-27T16:41:57.625Z,101410.00
2022-12-27T16:44:56.503Z,101418.69
2022-12-27T16:47:38.115Z,101415.09
2022-12-27T16:50:54.014Z,101419.44
2022-12-27T16:53:43.918Z,101416.69
2022-12-27T16:56:27.988Z,101420.09
2022-12-27T16:58:59.737Z,101418.34
2022-12-27T17:01:52.601Z,101422.69
2022-12-27T17:05:01.361Z,101425.34
2022-12-27T17:07:42.076Z,101426.41
2022-12-27T17:10:34.014Z,101428.53
2022-12-27T17:13:15.163Z,101421.81
2022-12-27T17:16:05.145Z,101422.03
2022-12-27T17:18:48.762Z,101422.22
2022-12-27T17:21:30.312Z,101416.28
2022-12-27T17:24:06.945Z,101390.75
2022-12-27T17:26:49.404Z,101419.31
2022-12-27T17:29:42.794Z,101421.28
2022-12-27T17:32:48.528Z,101398.41
2022-12-27T17:35:29.164Z,101418.06
2022-12-27T17:38:22.053Z,101411.22
2022-12-27T17:41:18.848Z,101397.38
2022-12-27T17:44:35.691Z,101395.78
2022-12-27T17:47:55.232Z,101394.19
2022-12-27T17:50:27.865Z,101395.97
2022-12-27T17:53:37.908Z,101395.97
2022-12-27T17:56:55.378Z,101391.59
2022-12-27T17:59:29.021Z,101380.22
2022-12-27T18:02:23.526Z,101386.56
2022-12-27T18:04:56.904Z,101384.03
2022-12-27T18:07:30.714Z,101391.94
2022-12-27T18:10:16.967Z,101385.00
2022-12-27T18:12:55.885Z,101381.47
2022-12-27T18:15:30.113Z,101390.34
2022-12-27T18:18:04.886Z,101377.25
2022-12-27T18:20:38.053Z,101373.69
2022-12-27T18:23:10.382Z,101372.91
2022-12-27T18:25:44.624Z,101372.91
2022-12-27T18:28:18.450Z,101367.72
2022-12-27T18:31:19.046Z,101343.91
2022-12-27T18:33:53.330Z,101362.53
2022-12-27T18:36:36.978Z,101356.41
2022-12-27T18:39:31.254Z,101352.03
2022-12-27T18:42:05.530Z,101346.78
2022-12-27T18:44:46.512Z,101342.41
2022-12-27T18:47:24.663Z,101343.28
2022-12-27T18:50:02.583Z,101333.63
2022-12-27T18:52:38.295Z,101336.22
2022-12-27T18:55:32.119Z,101330.91
2022-12-27T18:58:20.726Z,101306.91
2022-12-27T19:01:01.950Z,101333.31
2022-12-27T19:03:40.146Z,101327.94
2022-12-27T19:06:13.339Z,101336.66
2022-12-27T19:08:47.772Z,101331.38
2022-12-27T19:11:21.569Z,101329.63
2022-12-27T19:13:56.615Z,101327.75
2022-12-27T19:16:34.671Z,101320.53
2022-12-27T19:19:18.296Z,101321.16
2022-12-27T19:21:49.631Z,101282.84
2022-12-27T19:24:23.650Z,101328.66
2022-12-27T19:26:57.604Z,101289.69
2022-12-27T19:29:36.507Z,101314.34
2022-12-27T19:32:12.263Z,101306.28
2022-12-27T19:34:54.570Z,101307.88
2022-12-27T19:37:28.708Z,101302.47
2022-12-27T19:40:00.258Z,101292.66
2022-12-27T19:42:34.665Z,101290.81
2022-12-27T19:45:06.417Z,101290.59
2022-12-27T19:47:39.711Z,101273.78
2022-12-27T19:50:11.936Z,101277.41
2022-12-27T19:52:47.144Z,101255.25
2022-12-27T19:55:24.099Z,101252.59
2022-12-27T19:57:56.367Z,101276.41
2022-12-27T20:00:27.759Z,101278.97
2022-12-27T20:02:59.865Z,101272.69
2022-12-27T20:06:14.729Z,101277.16
2022-12-27T20:08:28.305Z,101271.84
2022-12-27T20:11:00.931Z,101264.81
2022-12-27T20:13:32.685Z,101258.59
2022-12-27T20:16:05.184Z,101247.94
2022-12-27T20:18:41.296Z,101243.75
2022-12-27T20:21:18.047Z,101239.16
2022-12-27T20:23:50.169Z,101221.44
2022-12-27T20:26:23.897Z,101242.72
2022-12-27T20:28:55.208Z,101244.47
2022-12-27T20:31:26.628Z,101218.94
2022-12-27T20:33:58.045Z,101219.78
2022-12-27T20:36:29.330Z,101234.00
2022-12-27T20:39:00.762Z,101224.41
2022-12-27T20:41:32.056Z,101205.81
2022-12-27T20:44:03.800Z,101225.25
2022-12-27T20:46:35.154Z,101213.84
2022-12-27T20:49:07.057Z,101216.47
2022-12-27T20:51:38.570Z,101208.47
2022-12-27T20:54:11.795Z,101221.84
2022-12-27T20:56:43.258Z,101220.25
2022-12-27T20:59:14.571Z,101196.56
2022-12-27T21:01:45.984Z,101217.31
2022-12-27T21:04:17.288Z,101210.59
2022-12-27T21:06:48.558Z,101209.09
2022-12-27T21:09:19.925Z,101190.81
2022-12-27T21:11:52.967Z,101202.50
2022-12-27T21:14:24.358Z,101187.69
2022-12-27T21:16:55.809Z,101197.38
2022-12-27T21:19:27.103Z,101170.06
2022-12-27T21:21:58.648Z,101161.28
2022-12-27T21:24:30.016Z,101195.81
2022-12-27T21:27:01.441Z,101182.78
2022-12-27T21:29:32.793Z,101181.16
2022-12-27T21:32:04.386Z,101185.66
2022-12-27T21:34:35.838Z,101185.78
2022-12-27T21:37:12.997Z,101178.91
2022-12-27T21:39:44.901Z,101173.72
2022-12-27T21:42:16.247Z,101172.03
2022-12-27T21:44:47.595Z,101163.34
2022-12-27T21:47:18.877Z,101156.31
2022-12-27T21:49:50.143Z,101163.47
2022-12-27T21:52:21.494Z,101142.34
2022-12-27T21:54:52.783Z,101154.81
2022-12-27T21:57:24.051Z,101160.13
2022-12-27T21:59:55.965Z,101147.91
2022-12-27T22:02:27.381Z,101142.72
2022-12-27T22:04:58.749Z,101125.13
2022-12-27T22:07:30.029Z,101127.00
2022-12-27T22:10:01.681Z,101112.06
2022-12-27T22:12:33.098Z,101129.72
2022-12-27T22:15:04.673Z,101108.66
2022-12-27T22:17:35.937Z,101117.56
2022-12-27T22:20:07.927Z,101126.38
2022-12-27T22:22:39.299Z,101115.94
2022-12-27T22:25:10.682Z,101102.75
2022-12-27T22:27:42.104Z,101064.91
2022-12-27T22:30:13.564Z,101088.84
2022-12-27T22:32:44.852Z,101085.38
2022-12-27T22:35:16.249Z,101064.25
2022-12-27T22:37:47.519Z,101080.09
2022-12-27T22:40:25.960Z,101084.50
2022-12-27T22:43:09.303Z,101084.50
2022-12-27T22:45:42.505Z,101072.22
2022-12-27T22:48:13.900Z,101072.22
2022-12-27T22:50:45.240Z,101073.09
2022-12-27T22:53:16.542Z,101066.94
2022-12-27T22:55:48.846Z,101066.91
2022-12-27T22:58:20.191Z,101034.22
2022-12-27T23:00:51.467Z,101062.44
2022-12-27T23:03:23.177Z,101054.47
2022-12-27T23:06:01.278Z,101059.69
2022-12-27T23:08:32.728Z,101056.13
2022-12-27T23:11:07.169Z,101052.56
2022-12-27T23:13:38.610Z,101049.91
2022-12-27T23:16:10.240Z,101018.19
2022-12-27T23:18:41.840Z,101037.59
2022-12-27T23:21:20.323Z,101031.47
2022-12-27T23:23:54.472Z,101000.69
2022-12-27T23:26:26.020Z,101017.44
2022-12-27T23:28:58.007Z,101024.53
2022-12-27T23:31:29.828Z,101018.44
2022-12-27T23:34:01.176Z,101009.63
2022-12-27T23:36:32.971Z,101006.19
2022-12-27T23:39:04.559Z,101000.94
2022-12-27T23:41:37.047Z,100987.75
2022-12-27T23:44:08.435Z,100991.34
2022-12-27T23:46:39.837Z,100970.19
2022-12-27T23:49:11.191Z,100979.91
2022-12-27T23:51:42.456Z,100968.44
2022-12-27T23:54:13.727Z,100968.47
2022-12-27T23:56:45.000Z,100969.31
2022-12-27T23:59:16.726Z,100960.53
